sensor_id;sensor_type;location;lat;lon;timestamp;pressure;altitude;pressure_sealevel;temperature;humidity
9277;BME280;4676;42.678;23.244;2023-08-08T00:00:52;93984.44;;;15.58;100.00
9277;BME280;4676;42.678;23.244;2023-08-08T00:03:19;93991.00;;;15.62;100.00
9277;BME280;4676;42.678;23.244;2023-08-08T00:05:46;93992.16;;;15.56;100.00
9277;BME280;4676;42.678;23.244;2023-08-08T00:08:14;93994.91;;;15.53;100.00
9277;BME280;4676;42.678;23.244;2023-08-08T00:10:41;93980.50;;;15.52;100.00
9277;BME280;4676;42.678;23.244;2023-08-08T00:13:07;93993.44;;;15.35;100.00
9277;BME280;4676;42.678;23.244;2023-08-08T00:15:34;93997.81;;;15.33;100.00
9277;BME280;4676;42.678;23.244;2023-08-08T00:18:01;93985.88;;;15.19;100.00
9277;BME280;4676;42.678;23.244;2023-08-08T00:20:28;93995.09;;;15.22;100.00
9277;BME280;4676;42.678;23.244;2023-08-08T00:22:55;93991.06;;;15.18;100.00
9277;BME280;4676;42.678;23.244;2023-08-08T00:25:23;93984.78;;;15.23;100.00
9277;BME280;4676;42.678;23.244;2023-08-08T00:27:50;93992.91;;;15.16;100.00
9277;BME280;4676;42.678;23.244;2023-08-08T00:30:17;94000.81;;;15.11;100.00
9277;BME280;4676;42.678;23.244;2023-08-08T00:32:43;94009.75;;;15.04;100.00
9277;BME280;4676;42.678;23.244;2023-08-08T00:35:10;94009.94;;;15.15;100.00
9277;BME280;4676;42.678;23.244;2023-08-08T00:37:37;93992.53;;;15.08;100.00
9277;BME280;4676;42.678;23.244;2023-08-08T00:40:05;94004.72;;;15.17;100.00
9277;BME280;4676;42.678;23.244;2023-08-08T00:42:33;93988.25;;;15.08;100.00
9277;BME280;4676;42.678;23.244;2023-08-08T00:45:00;94006.94;;;15.09;100.00
9277;BME280;4676;42.678;23.244;2023-08-08T00:47:30;94017.16;;;15.09;100.00
9277;BME280;4676;42.678;23.244;2023-08-08T00:49:57;94014.84;;;15.04;100.00
9277;BME280;4676;42.678;23.244;2023-08-08T00:52:23;94019.34;;;15.15;100.00
9277;BME280;4676;42.678;23.244;2023-08-08T00:54:51;94014.78;;;15.20;100.00
9277;BME280;4676;42.678;23.244;2023-08-08T00:57:18;94015.31;;;15.11;100.00
9277;BME280;4676;42.678;23.244;2023-08-08T00:59:46;94018.06;;;15.08;100.00
9277;BME280;4676;42.678;23.244;2023-08-08T01:02:13;94019.13;;;15.04;100.00
9277;BME280;4676;42.678;23.244;2023-08-08T01:04:40;94024.78;;;14.94;100.00
9277;BME280;4676;42.678;23.244;2023-08-08T01:07:12;94032.53;;;14.93;100.00
9277;BME280;4676;42.678;23.244;2023-08-08T01:09:46;94029.44;;;14.88;100.00
9277;BME280;4676;42.678;23.244;2023-08-08T01:12:15;94037.53;;;14.94;100.00
9277;BME280;4676;42.678;23.244;2023-08-08T01:14:42;94040.44;;;14.88;100.00
9277;BME280;4676;42.678;23.244;2023-08-08T01:17:12;94027.41;;;14.93;100.00
9277;BME280;4676;42.678;23.244;2023-08-08T01:19:39;94044.75;;;14.88;100.00
9277;BME280;4676;42.678;23.244;2023-08-08T01:22:09;94033.38;;;14.78;100.00
9277;BME280;4676;42.678;23.244;2023-08-08T01:24:40;94036.59;;;14.81;100.00
9277;BME280;4676;42.678;23.244;2023-08-08T01:27:09;94031.78;;;14.77;100.00
9277;BME280;4676;42.678;23.244;2023-08-08T01:29:36;94040.13;;;14.79;100.00
9277;BME280;4676;42.678;23.244;2023-08-08T01:32:04;94039.50;;;14.75;100.00
9277;BME280;4676;42.678;23.244;2023-08-08T01:34:32;94056.63;;;14.73;100.00
9277;BME280;4676;42.678;23.244;2023-08-08T01:37:01;94062.34;;;14.63;100.00
9277;BME280;4676;42.678;23.244;2023-08-08T01:39:32;94065.13;;;14.58;100.00
9277;BME280;4676;42.678;23.244;2023-08-08T01:42:01;94069.28;;;14.45;100.00
9277;BME280;4676;42.678;23.244;2023-08-08T01:44:28;94061.81;;;14.42;100.00
9277;BME280;4676;42.678;23.244;2023-08-08T01:46:56;94078.53;;;14.62;100.00
9277;BME280;4676;42.678;23.244;2023-08-08T01:49:23;94075.25;;;14.60;100.00
9277;BME280;4676;42.678;23.244;2023-08-08T01:51:49;94068.84;;;14.53;100.00
9277;BME280;4676;42.678;23.244;2023-08-08T01:54:17;94077.72;;;14.61;100.00
9277;BME280;4676;42.678;23.244;2023-08-08T01:56:44;94079.44;;;14.61;100.00
9277;BME280;4676;42.678;23.244;2023-08-08T01:59:12;94068.75;;;14.54;100.00
9277;BME280;4676;42.678;23.244;2023-08-08T02:01:39;94091.59;;;14.71;100.00
9277;BME280;4676;42.678;23.244;2023-08-08T02:04:05;94077.13;;;14.72;100.00
9277;BME280;4676;42.678;23.244;2023-08-08T02:06:32;94091.09;;;14.80;100.00
9277;BME280;4676;42.678;23.244;2023-08-08T02:08:59;94092.00;;;14.79;100.00
9277;BME280;4676;42.678;23.244;2023-08-08T02:11:25;94095.25;;;14.81;100.00
9277;BME280;4676;42.678;23.244;2023-08-08T02:13:52;94089.38;;;14.81;100.00
9277;BME280;4676;42.678;23.244;2023-08-08T02:16:20;94102.50;;;14.89;100.00
9277;BME280;4676;42.678;23.244;2023-08-08T02:18:47;94100.03;;;14.87;100.00
9277;BME280;4676;42.678;23.244;2023-08-08T02:21:14;94097.75;;;14.83;100.00
9277;BME280;4676;42.678;23.244;2023-08-08T02:23:40;94112.63;;;14.90;100.00
9277;BME280;4676;42.678;23.244;2023-08-08T02:26:07;94106.47;;;14.79;100.00
9277;BME280;4676;42.678;23.244;2023-08-08T02:28:34;94131.16;;;14.78;100.00
9277;BME280;4676;42.678;23.244;2023-08-08T02:31:00;94119.66;;;14.71;100.00
9277;BME280;4676;42.678;23.244;2023-08-08T02:33:28;94095.88;;;14.71;100.00
9277;BME280;4676;42.678;23.244;2023-08-08T02:35:55;94097.53;;;14.72;100.00
9277;BME280;4676;42.678;23.244;2023-08-08T02:38:22;94098.59;;;14.68;100.00
9277;BME280;4676;42.678;23.244;2023-08-08T02:40:48;94114.06;;;14.65;100.00
9277;BME280;4676;42.678;23.244;2023-08-08T02:43:15;94124.69;;;14.73;100.00
9277;BME280;4676;42.678;23.244;2023-08-08T02:45:42;94136.44;;;14.75;100.00
9277;BME280;4676;42.678;23.244;2023-08-08T02:48:08;94125.81;;;14.67;100.00
9277;BME280;4676;42.678;23.244;2023-08-08T02:50:36;94128.78;;;14.75;100.00
9277;BME280;4676;42.678;23.244;2023-08-08T02:53:03;94127.31;;;14.71;100.00
9277;BME280;4676;42.678;23.244;2023-08-08T02:55:30;94136.09;;;14.81;100.00
9277;BME280;4676;42.678;23.244;2023-08-08T02:57:57;94139.81;;;14.91;100.00
9277;BME280;4676;42.678;23.244;2023-08-08T03:00:23;94147.75;;;15.01;100.00
9277;BME280;4676;42.678;23.244;2023-08-08T03:02:50;94141.28;;;15.10;100.00
9277;BME280;4676;42.678;23.244;2023-08-08T03:05:17;94140.41;;;15.11;100.00
9277;BME280;4676;42.678;23.244;2023-08-08T03:07:45;94146.63;;;15.21;100.00
9277;BME280;4676;42.678;23.244;2023-08-08T03:10:12;94141.88;;;15.15;100.00
9277;BME280;4676;42.678;23.244;2023-08-08T03:12:39;94145.25;;;15.15;100.00
9277;BME280;4676;42.678;23.244;2023-08-08T03:15:07;94143.94;;;15.08;100.00
9277;BME280;4676;42.678;23.244;2023-08-08T03:17:35;94153.59;;;15.03;100.00
9277;BME280;4676;42.678;23.244;2023-08-08T03:20:02;94126.03;;;14.94;100.00
9277;BME280;4676;42.678;23.244;2023-08-08T03:22:31;94133.59;;;14.95;100.00
9277;BME280;4676;42.678;23.244;2023-08-08T03:24:58;94156.41;;;14.98;100.00
9277;BME280;4676;42.678;23.244;2023-08-08T03:27:24;94155.97;;;15.06;100.00
9277;BME280;4676;42.678;23.244;2023-08-08T03:29:51;94153.41;;;15.06;100.00
9277;BME280;4676;42.678;23.244;2023-08-08T03:32:18;94150.38;;;14.99;100.00
9277;BME280;4676;42.678;23.244;2023-08-08T03:34:45;94143.81;;;14.95;100.00
9277;BME280;4676;42.678;23.244;2023-08-08T03:37:11;94146.28;;;14.97;100.00
9277;BME280;4676;42.678;23.244;2023-08-08T03:39:38;94144.56;;;14.97;100.00
9277;BME280;4676;42.678;23.244;2023-08-08T03:42:07;94154.16;;;15.08;100.00
9277;BME280;4676;42.678;23.244;2023-08-08T03:44:33;94161.75;;;15.24;100.00
9277;BME280;4676;42.678;23.244;2023-08-08T03:47:00;94154.84;;;15.26;100.00
9277;BME280;4676;42.678;23.244;2023-08-08T03:49:27;94153.94;;;15.27;100.00
9277;BME280;4676;42.678;23.244;2023-08-08T03:51:54;94144.06;;;15.21;100.00
9277;BME280;4676;42.678;23.244;2023-08-08T03:54:20;94133.63;;;15.10;100.00
9277;BME280;4676;42.678;23.244;2023-08-08T03:56:47;94140.31;;;15.12;100.00
9277;BME280;4676;42.678;23.244;2023-08-08T03:59:15;94146.41;;;15.10;100.00
9277;BME280;4676;42.678;23.244;2023-08-08T04:01:42;94151.59;;;15.08;100.00
9277;BME280;4676;42.678;23.244;2023-08-08T04:04:08;94163.53;;;15.08;100.00
9277;BME280;4676;42.678;23.244;2023-08-08T04:06:35;94170.94;;;15.12;100.00
9277;BME280;4676;42.678;23.244;2023-08-08T04:09:02;94176.78;;;15.14;100.00
9277;BME280;4676;42.678;23.244;2023-08-08T04:11:29;94171.19;;;15.08;100.00
9277;BME280;4676;42.678;23.244;2023-08-08T04:13:55;94176.72;;;15.16;100.00
9277;BME280;4676;42.678;23.244;2023-08-08T04:16:23;94182.97;;;15.10;100.00
9277;BME280;4676;42.678;23.244;2023-08-08T04:18:50;94171.84;;;15.11;100.00
9277;BME280;4676;42.678;23.244;2023-08-08T04:21:17;94179.97;;;15.18;100.00
9277;BME280;4676;42.678;23.244;2023-08-08T04:23:43;94189.94;;;15.22;100.00
9277;BME280;4676;42.678;23.244;2023-08-08T04:26:10;94188.13;;;15.24;100.00
9277;BME280;4676;42.678;23.244;2023-08-08T04:28:37;94189.03;;;15.23;100.00
9277;BME280;4676;42.678;23.244;2023-08-08T04:31:03;94190.50;;;15.27;100.00
9277;BME280;4676;42.678;23.244;2023-08-08T04:33:31;94193.16;;;15.26;100.00
9277;BME280;4676;42.678;23.244;2023-08-08T04:35:58;94198.25;;;15.26;100.00
9277;BME280;4676;42.678;23.244;2023-08-08T04:38:25;94187.22;;;15.25;100.00
9277;BME280;4676;42.678;23.244;2023-08-08T04:40:51;94176.19;;;15.25;100.00
9277;BME280;4676;42.678;23.244;2023-08-08T04:43:18;94164.19;;;15.41;100.00
9277;BME280;4676;42.678;23.244;2023-08-08T04:45:45;94169.44;;;15.38;100.00
9277;BME280;4676;42.678;23.244;2023-08-08T04:48:11;94181.63;;;15.48;100.00
9277;BME280;4676;42.678;23.244;2023-08-08T04:50:39;94187.66;;;15.47;100.00
9277;BME280;4676;42.678;23.244;2023-08-08T04:53:07;94166.56;;;15.44;100.00
9277;BME280;4676;42.678;23.244;2023-08-08T04:55:33;94202.66;;;15.54;100.00
9277;BME280;4676;42.678;23.244;2023-08-08T04:58:00;94213.34;;;15.60;100.00
9277;BME280;4676;42.678;23.244;2023-08-08T05:00:27;94216.44;;;15.51;100.00
9277;BME280;4676;42.678;23.244;2023-08-08T05:02:54;94223.16;;;15.52;100.00
9277;BME280;4676;42.678;23.244;2023-08-08T05:05:20;94235.59;;;15.58;100.00
9277;BME280;4676;42.678;23.244;2023-08-08T05:07:48;94247.00;;;15.37;100.00
9277;BME280;4676;42.678;23.244;2023-08-08T05:10:15;94255.56;;;15.36;100.00
9277;BME280;4676;42.678;23.244;2023-08-08T05:12:42;94250.75;;;15.45;100.00
9277;BME280;4676;42.678;23.244;2023-08-08T05:15:09;94252.72;;;15.56;100.00
9277;BME280;4676;42.678;23.244;2023-08-08T05:17:36;94244.09;;;15.73;100.00
9277;BME280;4676;42.678;23.244;2023-08-08T05:20:03;94248.22;;;15.75;100.00
9277;BME280;4676;42.678;23.244;2023-08-08T05:22:30;94251.88;;;15.71;100.00
9277;BME280;4676;42.678;23.244;2023-08-08T05:24:58;94246.19;;;15.66;100.00
9277;BME280;4676;42.678;23.244;2023-08-08T05:27:24;94251.94;;;15.70;100.00
9277;BME280;4676;42.678;23.244;2023-08-08T05:29:51;94257.88;;;15.70;100.00
9277;BME280;4676;42.678;23.244;2023-08-08T05:32:18;94265.75;;;15.81;100.00
9277;BME280;4676;42.678;23.244;2023-08-08T05:34:44;94273.50;;;15.80;100.00
9277;BME280;4676;42.678;23.244;2023-08-08T05:37:11;94283.09;;;15.90;100.00
9277;BME280;4676;42.678;23.244;2023-08-08T05:39:38;94284.88;;;15.90;100.00
9277;BME280;4676;42.678;23.244;2023-08-08T05:42:06;94288.00;;;16.09;100.00
9277;BME280;4676;42.678;23.244;2023-08-08T05:44:33;94296.41;;;16.11;100.00
9277;BME280;4676;42.678;23.244;2023-08-08T05:47:00;94301.88;;;16.05;100.00
9277;BME280;4676;42.678;23.244;2023-08-08T05:49:26;94300.53;;;16.14;100.00
9277;BME280;4676;42.678;23.244;2023-08-08T05:51:53;94296.56;;;16.08;100.00
9277;BME280;4676;42.678;23.244;2023-08-08T05:54:20;94287.88;;;15.96;100.00
9277;BME280;4676;42.678;23.244;2023-08-08T05:56:46;94292.63;;;15.88;100.00
9277;BME280;4676;42.678;23.244;2023-08-08T05:59:14;94304.56;;;15.88;100.00
9277;BME280;4676;42.678;23.244;2023-08-08T06:01:41;94314.25;;;15.83;100.00
9277;BME280;4676;42.678;23.244;2023-08-08T06:04:09;94324.53;;;15.81;100.00
9277;BME280;4676;42.678;23.244;2023-08-08T06:06:36;94322.59;;;15.71;100.00
9277;BME280;4676;42.678;23.244;2023-08-08T06:09:03;94313.78;;;15.61;100.00
9277;BME280;4676;42.678;23.244;2023-08-08T06:11:30;94310.72;;;15.70;100.00
9277;BME280;4676;42.678;23.244;2023-08-08T06:13:57;94299.34;;;15.75;100.00
9277;BME280;4676;42.678;23.244;2023-08-08T06:16:25;94304.78;;;15.99;100.00
9277;BME280;4676;42.678;23.244;2023-08-08T06:18:52;94303.09;;;16.28;100.00
9277;BME280;4676;42.678;23.244;2023-08-08T06:21:19;94299.50;;;16.60;100.00
9277;BME280;4676;42.678;23.244;2023-08-08T06:23:45;94291.41;;;16.94;100.00
9277;BME280;4676;42.678;23.244;2023-08-08T06:26:13;94293.38;;;17.04;100.00
9277;BME280;4676;42.678;23.244;2023-08-08T06:28:39;94292.91;;;17.11;100.00
9277;BME280;4676;42.678;23.244;2023-08-08T06:31:06;94294.72;;;17.23;100.00
9277;BME280;4676;42.678;23.244;2023-08-08T06:33:34;94295.25;;;17.28;100.00
9277;BME280;4676;42.678;23.244;2023-08-08T06:36:01;94280.53;;;17.18;100.00
9277;BME280;4676;42.678;23.244;2023-08-08T06:38:28;94301.59;;;17.23;100.00
9277;BME280;4676;42.678;23.244;2023-08-08T06:40:59;94290.31;;;17.25;100.00
9277;BME280;4676;42.678;23.244;2023-08-08T06:43:25;94300.44;;;17.41;100.00
9277;BME280;4676;42.678;23.244;2023-08-08T06:45:52;94293.03;;;17.10;100.00
9277;BME280;4676;42.678;23.244;2023-08-08T06:48:19;94301.88;;;17.18;100.00
9277;BME280;4676;42.678;23.244;2023-08-08T06:50:47;94312.09;;;17.18;100.00
9277;BME280;4676;42.678;23.244;2023-08-08T06:53:14;94310.56;;;17.16;100.00
9277;BME280;4676;42.678;23.244;2023-08-08T06:55:41;94307.06;;;17.31;100.00
9277;BME280;4676;42.678;23.244;2023-08-08T06:58:07;94318.69;;;17.22;100.00
9277;BME280;4676;42.678;23.244;2023-08-08T07:00:34;94321.81;;;17.27;100.00
9277;BME280;4676;42.678;23.244;2023-08-08T07:03:01;94315.06;;;17.39;100.00
9277;BME280;4676;42.678;23.244;2023-08-08T07:05:27;94314.97;;;17.40;100.00
9277;BME280;4676;42.678;23.244;2023-08-08T07:07:56;94322.31;;;17.32;100.00
9277;BME280;4676;42.678;23.244;2023-08-08T07:10:23;94322.13;;;17.35;100.00
9277;BME280;4676;42.678;23.244;2023-08-08T07:13:01;94311.78;;;17.37;100.00
9277;BME280;4676;42.678;23.244;2023-08-08T07:15:28;94316.03;;;17.51;100.00
9277;BME280;4676;42.678;23.244;2023-08-08T07:17:55;94308.63;;;17.60;100.00
9277;BME280;4676;42.678;23.244;2023-08-08T07:20:22;94308.97;;;17.54;100.00
9277;BME280;4676;42.678;23.244;2023-08-08T07:22:49;94309.47;;;17.46;100.00
9277;BME280;4676;42.678;23.244;2023-08-08T07:25:17;94314.28;;;17.65;100.00
9277;BME280;4676;42.678;23.244;2023-08-08T07:27:44;94313.53;;;17.63;95.68
9277;BME280;4676;42.678;23.244;2023-08-08T07:30:12;94302.19;;;17.67;100.00
9277;BME280;4676;42.678;23.244;2023-08-08T07:32:38;94305.72;;;17.79;96.01
9277;BME280;4676;42.678;23.244;2023-08-08T07:35:05;94306.19;;;17.71;97.73
9277;BME280;4676;42.678;23.244;2023-08-08T07:37:34;94322.13;;;17.76;96.01
9277;BME280;4676;42.678;23.244;2023-08-08T07:40:01;94316.72;;;17.67;93.37
9277;BME280;4676;42.678;23.244;2023-08-08T07:42:30;94309.88;;;17.67;100.00
9277;BME280;4676;42.678;23.244;2023-08-08T07:44:57;94319.41;;;17.65;95.57
9277;BME280;4676;42.678;23.244;2023-08-08T07:47:24;94318.59;;;17.65;98.19
9277;BME280;4676;42.678;23.244;2023-08-08T07:49:50;94317.91;;;17.75;96.12
9277;BME280;4676;42.678;23.244;2023-08-08T07:52:17;94317.63;;;17.80;94.81
9277;BME280;4676;42.678;23.244;2023-08-08T07:54:43;94309.66;;;17.97;99.56
9277;BME280;4676;42.678;23.244;2023-08-08T07:57:10;94313.47;;;18.04;94.40
9277;BME280;4676;42.678;23.244;2023-08-08T07:59:38;94304.72;;;18.07;93.02
9277;BME280;4676;42.678;23.244;2023-08-08T08:02:05;94309.69;;;18.22;96.02
9277;BME280;4676;42.678;23.244;2023-08-08T08:04:33;94308.25;;;18.31;94.66
9277;BME280;4676;42.678;23.244;2023-08-08T08:06:59;94311.63;;;18.44;93.71
9277;BME280;4676;42.678;23.244;2023-08-08T08:09:26;94311.03;;;18.66;94.42
9277;BME280;4676;42.678;23.244;2023-08-08T08:11:53;94270.06;;;18.26;91.99
9277;BME280;4676;42.678;23.244;2023-08-08T08:14:21;94319.75;;;18.38;95.49
9277;BME280;4676;42.678;23.244;2023-08-08T08:16:49;94311.44;;;18.34;96.04
9277;BME280;4676;42.678;23.244;2023-08-08T08:19:16;94317.47;;;18.21;86.82
9277;BME280;4676;42.678;23.244;2023-08-08T08:21:43;94320.75;;;18.10;86.77
9277;BME280;4676;42.678;23.244;2023-08-08T08:24:09;94321.28;;;18.15;93.99
9277;BME280;4676;42.678;23.244;2023-08-08T08:26:36;94302.59;;;18.13;94.16
9277;BME280;4676;42.678;23.244;2023-08-08T08:29:03;94317.22;;;18.51;89.14
9277;BME280;4676;42.678;23.244;2023-08-08T08:31:29;94321.41;;;18.39;87.11
9277;BME280;4676;42.678;23.244;2023-08-08T08:33:57;94318.91;;;18.25;89.39
9277;BME280;4676;42.678;23.244;2023-08-08T08:36:24;94320.03;;;18.21;90.11
9277;BME280;4676;42.678;23.244;2023-08-08T08:38:51;94301.38;;;18.31;92.27
9277;BME280;4676;42.678;23.244;2023-08-08T08:41:20;94315.94;;;18.31;89.96
9277;BME280;4676;42.678;23.244;2023-08-08T08:43:51;94315.63;;;18.23;89.60
9277;BME280;4676;42.678;23.244;2023-08-08T08:46:20;94315.72;;;18.21;89.18
9277;BME280;4676;42.678;23.244;2023-08-08T08:48:47;94306.59;;;18.30;89.73
9277;BME280;4676;42.678;23.244;2023-08-08T08:51:17;94309.28;;;18.66;90.73
9277;BME280;4676;42.678;23.244;2023-08-08T08:53:44;94311.78;;;18.68;85.99
9277;BME280;4676;42.678;23.244;2023-08-08T08:56:11;94309.19;;;18.42;84.76
9277;BME280;4676;42.678;23.244;2023-08-08T08:58:39;94324.81;;;18.52;86.29
9277;BME280;4676;42.678;23.244;2023-08-08T09:01:07;94311.09;;;18.89;95.69
9277;BME280;4676;42.678;23.244;2023-08-08T09:03:34;94315.66;;;19.22;89.40
9277;BME280;4676;42.678;23.244;2023-08-08T09:06:02;94315.56;;;19.24;81.54
9277;BME280;4676;42.678;23.244;2023-08-08T09:08:30;94322.59;;;18.96;75.29
9277;BME280;4676;42.678;23.244;2023-08-08T09:10:57;94311.88;;;18.66;85.04
9277;BME280;4676;42.678;23.244;2023-08-08T09:13:23;94308.75;;;18.86;80.56
9277;BME280;4676;42.678;23.244;2023-08-08T09:15:52;94300.53;;;18.94;80.60
9277;BME280;4676;42.678;23.244;2023-08-08T09:18:23;94313.50;;;18.80;83.43
9277;BME280;4676;42.678;23.244;2023-08-08T09:20:50;94321.59;;;18.48;82.35
9277;BME280;4676;42.678;23.244;2023-08-08T09:23:17;94317.28;;;18.24;82.88
9277;BME280;4676;42.678;23.244;2023-08-08T09:25:46;94309.59;;;18.49;85.27
9277;BME280;4676;42.678;23.244;2023-08-08T09:28:13;94309.00;;;18.71;84.52
9277;BME280;4676;42.678;23.244;2023-08-08T09:30:41;94314.94;;;18.84;79.91
9277;BME280;4676;42.678;23.244;2023-08-08T09:33:07;94302.81;;;18.73;79.31
9277;BME280;4676;42.678;23.244;2023-08-08T09:35:37;94312.31;;;18.96;88.49
9277;BME280;4676;42.678;23.244;2023-08-08T09:38:04;94315.09;;;19.06;75.91
9277;BME280;4676;42.678;23.244;2023-08-08T09:40:31;94314.75;;;19.11;76.36
9277;BME280;4676;42.678;23.244;2023-08-08T09:42:59;94321.16;;;19.05;71.76
9277;BME280;4676;42.678;23.244;2023-08-08T09:45:26;94316.47;;;18.74;73.23
9277;BME280;4676;42.678;23.244;2023-08-08T09:47:53;94320.16;;;18.82;77.22
9277;BME280;4676;42.678;23.244;2023-08-08T09:50:20;94316.97;;;18.91;77.95
9277;BME280;4676;42.678;23.244;2023-08-08T09:52:47;94321.75;;;19.09;82.04
9277;BME280;4676;42.678;23.244;2023-08-08T09:55:14;94322.19;;;19.03;76.11
9277;BME280;4676;42.678;23.244;2023-08-08T09:57:41;94322.94;;;18.92;74.47
9277;BME280;4676;42.678;23.244;2023-08-08T10:00:11;94329.63;;;18.82;72.13
9277;BME280;4676;42.678;23.244;2023-08-08T10:02:42;94327.84;;;18.82;72.70
9277;BME280;4676;42.678;23.244;2023-08-08T10:05:10;94314.09;;;18.83;70.59
9277;BME280;4676;42.678;23.244;2023-08-08T10:07:38;94317.38;;;18.98;72.04
9277;BME280;4676;42.678;23.244;2023-08-08T10:10:07;94313.34;;;19.07;80.03
9277;BME280;4676;42.678;23.244;2023-08-08T10:12:36;94312.56;;;19.30;71.92
9277;BME280;4676;42.678;23.244;2023-08-08T10:15:06;94320.59;;;19.25;70.18
9277;BME280;4676;42.678;23.244;2023-08-08T10:17:36;94318.91;;;19.37;68.45
9277;BME280;4676;42.678;23.244;2023-08-08T10:20:04;94317.53;;;19.57;80.62
9277;BME280;4676;42.678;23.244;2023-08-08T10:22:37;94317.31;;;19.83;71.36
9277;BME280;4676;42.678;23.244;2023-08-08T10:25:05;94324.41;;;20.04;71.65
9277;BME280;4676;42.678;23.244;2023-08-08T10:27:32;94326.03;;;20.05;76.89
9277;BME280;4676;42.678;23.244;2023-08-08T10:30:04;94319.03;;;20.07;66.34
9277;BME280;4676;42.678;23.244;2023-08-08T10:32:40;94327.00;;;19.80;67.31
9277;BME280;4676;42.678;23.244;2023-08-08T10:35:08;94326.72;;;19.48;69.06
9277;BME280;4676;42.678;23.244;2023-08-08T10:37:35;94316.66;;;19.32;71.36
9277;BME280;4676;42.678;23.244;2023-08-08T10:40:03;94313.81;;;19.24;70.56
9277;BME280;4676;42.678;23.244;2023-08-08T10:42:33;94306.72;;;19.28;70.04
9277;BME280;4676;42.678;23.244;2023-08-08T10:45:09;94310.47;;;19.48;69.95
9277;BME280;4676;42.678;23.244;2023-08-08T10:47:37;94311.59;;;19.67;70.87
9277;BME280;4676;42.678;23.244;2023-08-08T10:50:07;94305.72;;;19.54;69.60
9277;BME280;4676;42.678;23.244;2023-08-08T10:52:38;94306.25;;;19.47;71.25
9277;BME280;4676;42.678;23.244;2023-08-08T10:55:06;94304.03;;;19.42;70.37
9277;BME280;4676;42.678;23.244;2023-08-08T10:57:53;94290.97;;;19.45;82.76
9277;BME280;4676;42.678;23.244;2023-08-08T11:00:21;94302.88;;;19.70;72.36
9277;BME280;4676;42.678;23.244;2023-08-08T11:02:50;94305.00;;;19.76;71.11
9277;BME280;4676;42.678;23.244;2023-08-08T11:05:19;94292.22;;;19.63;73.54
9277;BME280;4676;42.678;23.244;2023-08-08T11:07:46;94291.31;;;19.75;69.73
9277;BME280;4676;42.678;23.244;2023-08-08T11:10:13;94301.06;;;19.83;68.52
9277;BME280;4676;42.678;23.244;2023-08-08T11:12:40;94302.75;;;19.71;70.53
9277;BME280;4676;42.678;23.244;2023-08-08T11:15:07;94301.41;;;19.55;70.24
9277;BME280;4676;42.678;23.244;2023-08-08T11:17:34;94302.44;;;19.52;69.87
9277;BME280;4676;42.678;23.244;2023-08-08T11:20:02;94295.75;;;19.50;74.26
9277;BME280;4676;42.678;23.244;2023-08-08T11:22:31;94297.53;;;19.49;66.60
9277;BME280;4676;42.678;23.244;2023-08-08T11:24:58;94292.63;;;19.57;67.54
9277;BME280;4676;42.678;23.244;2023-08-08T11:27:28;94296.69;;;19.72;67.71
9277;BME280;4676;42.678;23.244;2023-08-08T11:29:56;94305.66;;;19.90;68.63
9277;BME280;4676;42.678;23.244;2023-08-08T11:32:23;94303.06;;;19.90;67.86
9277;BME280;4676;42.678;23.244;2023-08-08T11:34:50;94303.22;;;20.00;67.19
9277;BME280;4676;42.678;23.244;2023-08-08T11:37:18;94295.59;;;19.99;67.64
9277;BME280;4676;42.678;23.244;2023-08-08T11:39:46;94284.88;;;20.05;68.69
9277;BME280;4676;42.678;23.244;2023-08-08T11:42:14;94289.16;;;20.28;74.02
9277;BME280;4676;42.678;23.244;2023-08-08T11:44:41;94288.72;;;20.45;66.18
9277;BME280;4676;42.678;23.244;2023-08-08T11:47:08;94284.50;;;20.55;64.49
9277;BME280;4676;42.678;23.244;2023-08-08T11:49:40;94280.41;;;20.53;61.68
9277;BME280;4676;42.678;23.244;2023-08-08T11:52:07;94271.03;;;20.52;64.65
9277;BME280;4676;42.678;23.244;2023-08-08T11:54:36;94273.50;;;20.42;63.75
9277;BME280;4676;42.678;23.244;2023-08-08T11:57:04;94275.41;;;20.05;65.24
9277;BME280;4676;42.678;23.244;2023-08-08T11:59:31;94277.25;;;20.03;65.19
9277;BME280;4676;42.678;23.244;2023-08-08T12:01:58;94267.56;;;20.07;66.21
9277;BME280;4676;42.678;23.244;2023-08-08T12:04:25;94274.97;;;20.22;64.88
9277;BME280;4676;42.678;23.244;2023-08-08T12:07:00;94259.22;;;20.38;66.92
9277;BME280;4676;42.678;23.244;2023-08-08T12:09:29;94266.13;;;20.60;64.48
9277;BME280;4676;42.678;23.244;2023-08-08T12:11:59;94265.31;;;20.59;64.45
9277;BME280;4676;42.678;23.244;2023-08-08T12:14:27;94257.84;;;20.67;62.18
9277;BME280;4676;42.678;23.244;2023-08-08T12:16:53;94255.34;;;20.77;71.11
9277;BME280;4676;42.678;23.244;2023-08-08T12:19:23;94255.69;;;20.83;64.93
9277;BME280;4676;42.678;23.244;2023-08-08T12:21:49;94259.44;;;21.02;62.90
9277;BME280;4676;42.678;23.244;2023-08-08T12:24:16;94252.88;;;20.98;62.48
9277;BME280;4676;42.678;23.244;2023-08-08T12:26:43;94230.53;;;20.87;61.20
9277;BME280;4676;42.678;23.244;2023-08-08T12:29:09;94240.00;;;20.98;60.42
9277;BME280;4676;42.678;23.244;2023-08-08T12:31:38;94233.31;;;21.06;64.61
9277;BME280;4676;42.678;23.244;2023-08-08T12:34:05;94227.69;;;21.01;66.12
9277;BME280;4676;42.678;23.244;2023-08-08T12:36:32;94228.28;;;20.93;67.26
9277;BME280;4676;42.678;23.244;2023-08-08T12:38:59;94231.56;;;21.07;63.44
9277;BME280;4676;42.678;23.244;2023-08-08T12:41:25;94236.38;;;21.00;61.41
9277;BME280;4676;42.678;23.244;2023-08-08T12:43:54;94234.84;;;20.98;62.43
9277;BME280;4676;42.678;23.244;2023-08-08T12:46:21;94227.81;;;21.00;62.04
9277;BME280;4676;42.678;23.244;2023-08-08T12:48:49;94235.53;;;21.22;67.53
9277;BME280;4676;42.678;23.244;2023-08-08T12:51:16;94235.81;;;21.39;62.09
9277;BME280;4676;42.678;23.244;2023-08-08T12:53:43;94252.09;;;21.51;61.86
9277;BME280;4676;42.678;23.244;2023-08-08T12:56:10;94235.69;;;21.52;58.44
9277;BME280;4676;42.678;23.244;2023-08-08T12:58:37;94229.75;;;21.29;59.89
9277;BME280;4676;42.678;23.244;2023-08-08T13:01:04;94237.59;;;21.39;60.53
9277;BME280;4676;42.678;23.244;2023-08-08T13:03:31;94230.84;;;21.27;59.39
9277;BME280;4676;42.678;23.244;2023-08-08T13:06:00;94226.81;;;21.34;57.89